createdAt,value
2022-11-24T00:00:11.750Z,7.67
2022-11-24T00:02:44.748Z,7.68
2022-11-24T00:05:17.215Z,6.98
2022-11-24T00:07:47.484Z,7.53
2022-11-24T00:10:16.610Z,7.55
2022-11-24T00:12:50.212Z,7.06
2022-11-24T00:15:20.087Z,7.37
2022-11-24T00:17:53.818Z,7.59
2022-11-24T00:20:24.127Z,7.32
2022-11-24T00:23:02.985Z,7.06
2022-11-24T00:25:32.118Z,7.43
2022-11-24T00:28:02.718Z,7.25
2022-11-24T00:30:32.989Z,7.31
2022-11-24T00:33:04.027Z,7.42
2022-11-24T00:35:35.433Z,7.50
2022-11-24T00:38:17.990Z,6.18
2022-11-24T00:40:59.607Z,7.54
2022-11-24T00:43:38.379Z,7.57
2022-11-24T00:46:15.898Z,7.61
2022-11-24T00:48:51.960Z,7.54
2022-11-24T00:51:25.259Z,7.66
2022-11-24T00:53:59.077Z,7.74
2022-11-24T00:56:27.502Z,7.70
2022-11-24T00:59:15.142Z,7.88
2022-11-24T01:01:46.332Z,7.90
2022-11-24T01:04:19.390Z,7.66
2022-11-24T01:06:52.292Z,7.84
2022-11-24T01:09:21.260Z,7.85
2022-11-24T01:12:06.076Z,7.92
2022-11-24T01:14:42.571Z,7.93
2022-11-24T01:17:09.970Z,7.87
2022-11-24T01:19:36.906Z,7.82
2022-11-24T01:22:10.763Z,7.87
2022-11-24T01:24:43.992Z,7.92
2022-11-24T01:27:18.874Z,6.28
2022-11-24T01:29:49.473Z,7.88
2022-11-24T01:32:20.820Z,7.83
2022-11-24T01:34:47.905Z,7.41
2022-11-24T01:37:15.256Z,7.82
2022-11-24T01:39:42.087Z,7.77
2022-11-24T01:42:15.002Z,7.69
2022-11-24T01:44:48.651Z,7.75
2022-11-24T01:47:48.075Z,7.58
2022-11-24T01:50:18.195Z,7.17
2022-11-24T01:52:52.262Z,7.25
2022-11-24T01:55:33.456Z,7.66
2022-11-24T01:58:33.825Z,7.14
2022-11-24T02:01:10.797Z,7.66
2022-11-24T02:03:48.251Z,7.80
2022-11-24T02:06:26.673Z,7.71
2022-11-24T02:09:00.571Z,7.82
2022-11-24T02:11:36.498Z,7.76
2022-11-24T02:14:09.681Z,7.91
2022-11-24T02:16:37.645Z,7.67
2022-11-24T02:19:14.946Z,7.93
2022-11-24T02:21:43.474Z,8.02
2022-11-24T02:24:31.226Z,8.34
2022-11-24T02:26:58.201Z,8.42
2022-11-24T02:29:25.105Z,8.53
2022-11-24T02:31:58.259Z,8.33
2022-11-24T02:34:25.093Z,8.58
2022-11-24T02:36:51.763Z,8.29
2022-11-24T02:39:18.799Z,8.47
2022-11-24T02:42:00.517Z,8.42
2022-11-24T02:44:33.170Z,8.33
2022-11-24T02:47:09.339Z,8.31
2022-11-24T02:49:36.569Z,8.17
2022-11-24T02:52:07.255Z,8.06
2022-11-24T02:54:36.760Z,8.09
2022-11-24T02:57:04.186Z,7.92
2022-11-24T02:59:32.834Z,8.01
2022-11-24T03:01:59.467Z,7.84
2022-11-24T03:04:33.192Z,7.93
2022-11-24T03:07:07.533Z,8.02
2022-11-24T03:12:15.120Z,7.93
2022-11-24T03:14:42.812Z,7.66
2022-11-24T03:17:09.779Z,7.89
2022-11-24T03:19:39.048Z,7.82
2022-11-24T03:22:07.781Z,8.13
2022-11-24T03:24:36.094Z,7.57
2022-11-24T03:27:06.266Z,7.96
2022-11-24T03:29:41.803Z,8.16
2022-11-24T03:32:12.592Z,7.88
2022-11-24T03:34:41.196Z,8.11
2022-11-24T03:37:07.841Z,8.22
2022-11-24T03:39:36.027Z,8.22
2022-11-24T03:42:06.248Z,8.37
2022-11-24T03:44:36.476Z,8.46
2022-11-24T03:47:03.444Z,8.42
2022-11-24T03:49:31.064Z,8.15
2022-11-24T03:52:08.584Z,8.52
2022-11-24T03:54:50.741Z,8.01
2022-11-24T03:57:29.382Z,8.50
2022-11-24T04:00:18.550Z,8.41
2022-11-24T04:02:49.076Z,8.56
2022-11-24T04:05:16.613Z,8.53
2022-11-24T04:07:53.457Z,8.54
2022-11-24T04:10:40.991Z,8.64
2022-11-24T04:13:14.057Z,8.63
2022-11-24T04:15:42.705Z,8.88
2022-11-24T04:18:11.548Z,8.96
2022-11-24T04:20:45.638Z,9.11
2022-11-24T04:23:12.443Z,9.48
2022-11-24T04:25:39.963Z,9.36
2022-11-24T04:28:06.896Z,8.98
2022-11-24T04:30:45.588Z,9.16
2022-11-24T04:33:14.401Z,9.16
2022-11-24T04:35:49.252Z,8.76
2022-11-24T04:39:22.762Z,8.97
2022-11-24T04:41:29.885Z,8.65
2022-11-24T04:44:05.421Z,8.92
2022-11-24T04:46:35.123Z,9.24
2022-11-24T04:49:03.578Z,9.24
2022-11-24T04:51:39.361Z,9.17
2022-11-24T04:54:23.963Z,9.15
2022-11-24T04:57:06.391Z,9.18
2022-11-24T04:59:48.644Z,9.33
2022-11-24T05:02:17.001Z,9.36
2022-11-24T05:04:44.753Z,9.23
2022-11-24T05:07:18.656Z,9.43
2022-11-24T05:10:06.144Z,8.90
2022-11-24T05:12:35.704Z,9.49
2022-11-24T05:15:06.279Z,9.65
2022-11-24T05:17:41.376Z,9.70
2022-11-24T05:20:08.514Z,9.50
2022-11-24T05:22:35.167Z,9.73
2022-11-24T05:25:02.133Z,9.67
2022-11-24T05:27:29.098Z,9.39
2022-11-24T05:29:59.019Z,9.72
2022-11-24T05:32:25.712Z,9.78
2022-11-24T05:34:59.683Z,9.59
2022-11-24T05:37:29.138Z,10.23
2022-11-24T05:39:55.696Z,10.13
2022-11-24T05:42:46.096Z,9.59
2022-11-24T05:45:17.295Z,9.75
2022-11-24T05:47:45.330Z,9.55
2022-11-24T05:50:18.964Z,9.37
2022-11-24T05:52:46.888Z,9.03
2022-11-24T05:55:19.689Z,8.59
2022-11-24T05:57:47.360Z,8.61
2022-11-24T06:00:18.161Z,8.37
2022-11-24T06:02:48.916Z,8.20
2022-11-24T06:05:16.282Z,8.32
2022-11-24T06:07:43.324Z,8.45
2022-11-24T06:10:10.694Z,8.15
2022-11-24T06:12:37.585Z,8.45
2022-11-24T06:15:08.124Z,8.19
2022-11-24T06:17:59.174Z,8.13
2022-11-24T06:20:32.662Z,7.87
2022-11-24T06:23:05.194Z,7.85
2022-11-24T06:25:32.087Z,7.83
2022-11-24T06:28:03.795Z,7.73
2022-11-24T06:30:33.770Z,7.58
2022-11-24T06:33:00.873Z,7.53
2022-11-24T06:35:27.996Z,7.34
2022-11-24T06:37:57.906Z,7.49
2022-11-24T06:40:32.833Z,7.47
2022-11-24T06:43:01.156Z,7.40
2022-11-24T06:45:31.288Z,7.44
2022-11-24T06:47:59.403Z,7.28
2022-11-24T06:50:36.468Z,7.41
2022-11-24T06:53:06.219Z,7.38
2022-11-24T06:55:41.788Z,7.39
2022-11-24T06:58:11.831Z,7.18
2022-11-24T07:00:48.220Z,7.41
2022-11-24T07:03:17.109Z,7.37
2022-11-24T07:05:54.529Z,6.88
2022-11-24T07:08:21.509Z,7.33
2022-11-24T07:10:48.899Z,7.01
2022-11-24T07:13:16.235Z,7.51
2022-11-24T07:15:46.275Z,7.45
2022-11-24T07:18:13.225Z,7.46
2022-11-24T07:20:40.307Z,7.46
2022-11-24T07:23:07.125Z,7.46
2022-11-24T07:25:35.519Z,7.46
2022-11-24T07:28:03.071Z,7.64
2022-11-24T07:30:32.727Z,7.45
2022-11-24T07:33:06.766Z,7.78
2022-11-24T07:35:34.192Z,7.65
2022-11-24T07:38:04.753Z,8.02
2022-11-24T07:40:31.799Z,7.69
2022-11-24T07:43:01.315Z,8.14
2022-11-24T07:45:28.911Z,8.18
2022-11-24T07:47:57.164Z,8.19
2022-11-24T07:50:25.632Z,8.09
2022-11-24T07:52:53.390Z,8.31
2022-11-24T07:55:23.445Z,8.41
2022-11-24T07:57:50.401Z,8.44
2022-11-24T08:00:19.691Z,8.43
2022-11-24T08:02:46.293Z,8.45
2022-11-24T08:05:13.151Z,8.50
2022-11-24T08:07:39.757Z,8.60
2022-11-24T08:10:07.201Z,8.65
2022-11-24T08:12:33.905Z,8.75
2022-11-24T08:15:00.694Z,8.82
2022-11-24T08:17:31.461Z,9.02
2022-11-24T08:19:58.066Z,9.19
2022-11-24T08:22:24.652Z,9.09
2022-11-24T08:25:06.586Z,9.25
2022-11-24T08:27:33.791Z,8.25
2022-11-24T08:30:02.074Z,10.10
2022-11-24T08:32:30.552Z,10.32
2022-11-24T08:35:18.667Z,10.45
2022-11-24T08:38:04.681Z,10.30
2022-11-24T08:40:36.507Z,10.50
2022-11-24T08:43:03.914Z,10.57
2022-11-24T08:45:39.861Z,10.46
2022-11-24T08:48:11.694Z,10.59
2022-11-24T08:50:51.186Z,10.52
2022-11-24T08:53:22.893Z,10.85
2022-11-24T08:55:53.027Z,10.91
2022-11-24T08:58:44.292Z,11.00
2022-11-24T09:01:21.137Z,11.13
2022-11-24T09:03:56.673Z,11.23
2022-11-24T09:06:33.784Z,10.96
2022-11-24T09:09:12.525Z,11.33
2022-11-24T09:11:40.234Z,11.33
2022-11-24T09:14:11.176Z,11.39
2022-11-24T09:16:41.398Z,11.06
2022-11-24T09:19:27.784Z,11.04
2022-11-24T09:21:59.754Z,11.63
2022-11-24T09:24:32.076Z,11.77
2022-11-24T09:27:02.159Z,11.93
2022-11-24T09:29:29.975Z,11.91
2022-11-24T09:32:05.120Z,12.13
2022-11-24T09:34:33.304Z,12.17
2022-11-24T09:37:01.906Z,12.31
2022-11-24T09:39:28.482Z,12.28
2022-11-24T09:42:02.390Z,12.27
2022-11-24T09:45:22.868Z,12.42
2022-11-24T09:48:03.848Z,12.07
2022-11-24T09:50:57.635Z,12.34
2022-11-24T09:54:03.063Z,11.27
2022-11-24T09:56:34.984Z,12.47
2022-11-24T09:59:28.528Z,12.47
2022-11-24T10:01:56.686Z,12.52
2022-11-24T10:04:42.320Z,12.44
2022-11-24T10:07:12.040Z,12.55
2022-11-24T10:10:10.780Z,12.58
2022-11-24T10:13:15.229Z,12.41
2022-11-24T10:19:33.914Z,12.46
2022-11-24T10:22:38.407Z,12.34
2022-11-24T10:25:35.457Z,12.46
2022-11-24T10:28:06.079Z,12.47
2022-11-24T10:30:37.035Z,12.32
2022-11-24T10:33:27.091Z,12.27
2022-11-24T10:36:14.424Z,12.26
2022-11-24T10:39:20.076Z,12.64
2022-11-24T10:41:58.248Z,12.76
2022-11-24T10:44:26.213Z,12.70
2022-11-24T10:46:53.267Z,12.89
2022-11-24T10:49:30.405Z,12.57
2022-11-24T10:52:22.522Z,12.91
2022-11-24T10:55:01.846Z,12.60
2022-11-24T10:57:42.452Z,13.09
2022-11-24T11:00:33.830Z,13.21
2022-11-24T11:03:23.893Z,13.08
2022-11-24T11:06:14.639Z,12.94
2022-11-24T11:09:03.275Z,13.12
2022-11-24T11:11:40.161Z,12.69
2022-11-24T11:14:14.565Z,12.98
2022-11-24T11:17:00.652Z,12.76
2022-11-24T11:20:04.535Z,13.03
2022-11-24T11:25:57.895Z,12.46
2022-11-24T11:28:35.581Z,11.86
2022-11-24T11:31:22.394Z,12.64
2022-11-24T11:34:42.827Z,12.76
2022-11-24T11:37:47.904Z,12.71
2022-11-24T11:40:29.646Z,12.46
2022-11-24T11:43:33.258Z,12.54
2022-11-24T11:46:13.542Z,12.25
2022-11-24T11:48:45.100Z,12.65
2022-11-24T11:52:01.955Z,12.65
2022-11-24T11:54:45.952Z,12.86
2022-11-24T11:57:47.525Z,12.76
2022-11-24T12:00:24.808Z,12.78
2022-11-24T12:03:16.605Z,11.73
2022-11-24T12:06:22.604Z,12.67
2022-11-24T12:09:28.043Z,12.96
2022-11-24T12:12:22.835Z,12.94
2022-11-24T12:15:01.086Z,12.85
2022-11-24T12:18:03.924Z,12.87
2022-11-24T12:20:57.044Z,12.99
2022-11-24T12:24:07.501Z,13.03
2022-11-24T12:27:27.776Z,13.00
2022-11-24T12:30:16.905Z,12.89
2022-11-24T12:33:25.706Z,13.06
2022-11-24T12:36:03.611Z,13.21
2022-11-24T12:38:57.081Z,13.07
2022-11-24T12:41:55.887Z,13.37
2022-11-24T12:44:52.277Z,13.28
2022-11-24T12:47:52.084Z,12.64
2022-11-24T12:50:23.211Z,13.24
2022-11-24T12:53:28.089Z,13.20
2022-11-24T12:56:13.286Z,13.25
2022-11-24T12:58:59.288Z,13.49
2022-11-24T13:01:49.940Z,13.44
2022-11-24T13:04:42.877Z,13.36
2022-11-24T13:07:17.036Z,13.51
2022-11-24T13:10:40.096Z,13.46
2022-11-24T13:13:19.703Z,13.38
2022-11-24T13:19:17.068Z,12.99
2022-11-24T13:21:45.841Z,13.39
2022-11-24T13:24:40.879Z,13.35
2022-11-24T13:27:16.915Z,13.67
2022-11-24T13:29:49.870Z,13.66
2022-11-24T13:32:22.579Z,12.52
2022-11-24T13:34:55.265Z,13.43
2022-11-24T13:37:35.219Z,13.51
2022-11-24T13:40:12.099Z,13.61
2022-11-24T13:43:01.663Z,13.36
2022-11-24T13:45:41.217Z,13.75
2022-11-24T13:48:23.314Z,13.42
2022-11-24T13:50:49.941Z,12.87
2022-11-24T13:53:33.115Z,12.85
2022-11-24T13:56:25.614Z,13.17
2022-11-24T13:59:06.497Z,13.29
2022-11-24T14:01:37.140Z,13.24
2022-11-24T14:04:43.302Z,13.16
2022-11-24T14:07:15.476Z,12.31
2022-11-24T14:09:50.386Z,12.89
2022-11-24T14:12:22.240Z,13.30
2022-11-24T14:15:05.395Z,13.12
2022-11-24T14:17:35.040Z,13.10
2022-11-24T14:20:32.483Z,13.05
2022-11-24T14:23:08.436Z,13.17
2022-11-24T14:25:38.085Z,13.08
2022-11-24T14:28:22.107Z,13.02
2022-11-24T14:30:49.295Z,13.02
2022-11-24T14:33:24.004Z,13.00
2022-11-24T14:35:53.640Z,13.14
2022-11-24T14:38:20.640Z,12.72
2022-11-24T14:40:51.733Z,12.59
2022-11-24T14:43:27.892Z,12.80
2022-11-24T14:46:03.031Z,12.80
2022-11-24T14:48:53.222Z,12.84
2022-11-24T14:51:43.280Z,12.76
2022-11-24T14:54:19.449Z,12.62
2022-11-24T14:57:04.769Z,12.46
2022-11-24T14:59:40.261Z,11.57
2022-11-24T15:03:08.207Z,12.39
2022-11-24T15:06:04.376Z,12.00
2022-11-24T15:08:38.723Z,12.16
2022-11-24T15:11:08.454Z,12.23
2022-11-24T15:13:53.802Z,12.06
2022-11-24T15:16:25.739Z,12.17
2022-11-24T15:19:02.807Z,12.16
2022-11-24T15:21:34.525Z,11.88
2022-11-24T15:24:29.669Z,11.91
2022-11-24T15:27:01.776Z,11.89
2022-11-24T15:29:30.067Z,11.70
2022-11-24T15:31:59.163Z,11.65
2022-11-24T15:34:27.332Z,11.62
2022-11-24T15:36:54.279Z,11.22
2022-11-24T15:39:21.440Z,11.57
2022-11-24T15:42:00.747Z,11.57
2022-11-24T15:44:30.056Z,11.58
2022-11-24T15:46:59.699Z,11.83
2022-11-24T15:49:28.013Z,12.05
2022-11-24T15:52:00.440Z,11.99
2022-11-24T15:54:30.046Z,11.93
2022-11-24T15:56:56.703Z,11.82
2022-11-24T15:59:23.323Z,11.66
2022-11-24T16:01:50.927Z,11.21
2022-11-24T16:04:17.821Z,11.40
2022-11-24T16:06:45.013Z,11.10
2022-11-24T16:09:15.746Z,11.24
2022-11-24T16:11:42.498Z,11.18
2022-11-24T16:14:14.003Z,11.09
2022-11-24T16:16:43.634Z,11.08
2022-11-24T16:19:15.920Z,11.01
2022-11-24T16:21:48.661Z,10.57
2022-11-24T16:24:17.705Z,10.71
2022-11-24T16:26:48.981Z,10.77
2022-11-24T16:29:21.608Z,9.50
2022-11-24T16:31:50.594Z,10.77
2022-11-24T16:34:20.957Z,10.00
2022-11-24T16:36:52.508Z,10.54
2022-11-24T16:39:20.526Z,10.41
2022-11-24T16:41:48.711Z,10.40
2022-11-24T16:44:16.296Z,10.53
2022-11-24T16:46:44.767Z,10.14
2022-11-24T16:49:16.808Z,10.58
2022-11-24T16:51:50.196Z,10.77
2022-11-24T16:54:25.958Z,10.82
2022-11-24T16:56:56.963Z,10.74
2022-11-24T16:59:28.691Z,10.79
2022-11-24T17:02:04.397Z,10.70
2022-11-24T17:04:35.012Z,10.56
2022-11-24T17:07:02.414Z,10.31
2022-11-24T17:09:40.540Z,10.64
2022-11-24T17:12:08.219Z,10.59
2022-11-24T17:14:35.472Z,10.56
2022-11-24T17:17:04.839Z,10.43
2022-11-24T17:19:32.065Z,10.12
2022-11-24T17:22:00.493Z,10.80
2022-11-24T17:24:27.675Z,10.70
2022-11-24T17:26:54.486Z,10.85
2022-11-24T17:29:23.706Z,10.53
2022-11-24T17:31:56.119Z,10.61
2022-11-24T17:34:25.678Z,11.02
2022-11-24T17:36:53.096Z,10.96
2022-11-24T17:39:24.712Z,10.98
2022-11-24T17:41:51.841Z,11.13
2022-11-24T17:44:18.557Z,11.10
2022-11-24T17:46:45.510Z,10.79
2022-11-24T17:49:13.278Z,10.58
2022-11-24T17:51:40.285Z,9.89
2022-11-24T17:57:05.025Z,10.19
2022-11-24T17:59:37.685Z,10.47
2022-11-24T18:02:06.404Z,10.33
2022-11-24T18:04:36.186Z,10.75
2022-11-24T18:07:04.915Z,10.74
2022-11-24T18:09:31.610Z,10.72
2022-11-24T18:12:02.063Z,10.72
2022-11-24T18:14:37.700Z,10.30
2022-11-24T18:17:11.075Z,10.16
2022-11-24T18:19:49.350Z,9.70
2022-11-24T18:22:31.426Z,10.26
2022-11-24T18:25:06.847Z,9.83
2022-11-24T18:27:33.487Z,10.30
2022-11-24T18:30:00.133Z,11.64
2022-11-24T18:32:26.850Z,11.62
2022-11-24T18:34:54.193Z,11.70
2022-11-24T18:37:20.730Z,11.85
2022-11-24T18:39:47.416Z,11.40
2022-11-24T18:42:14.153Z,11.16
2022-11-24T18:44:42.398Z,10.63
2022-11-24T18:47:09.125Z,10.48
2022-11-24T18:49:35.800Z,10.27
2022-11-24T18:52:02.455Z,10.39
2022-11-24T18:54:30.067Z,10.66
2022-11-24T18:57:02.974Z,10.50
2022-11-24T18:59:32.838Z,10.34
2022-11-24T19:01:59.652Z,10.66
2022-11-24T19:04:26.554Z,10.72
2022-11-24T19:07:09.762Z,10.53
2022-11-24T19:09:37.953Z,10.17
2022-11-24T19:12:06.271Z,10.36
2022-11-24T19:14:36.117Z,10.46
2022-11-24T19:17:04.001Z,11.55
2022-11-24T19:19:34.295Z,12.13
2022-11-24T19:22:01.841Z,12.42
2022-11-24T19:24:28.930Z,12.38
2022-11-24T19:26:59.130Z,12.31
2022-11-24T19:29:26.035Z,11.98
2022-11-24T19:31:56.263Z,11.61
2022-11-24T19:34:22.887Z,11.97
2022-11-24T19:36:49.567Z,12.30
2022-11-24T19:39:16.860Z,12.17
2022-11-24T19:41:43.798Z,12.56
2022-11-24T19:44:13.676Z,11.85
2022-11-24T19:46:40.790Z,12.54
2022-11-24T19:49:10.672Z,11.80
2022-11-24T19:51:39.762Z,12.07
2022-11-24T19:54:08.201Z,12.12
2022-11-24T19:56:36.549Z,11.88
2022-11-24T19:59:07.354Z,11.20
2022-11-24T20:01:39.823Z,11.43
2022-11-24T20:04:12.822Z,11.10
2022-11-24T20:06:56.092Z,10.60
2022-11-24T20:09:26.893Z,10.60
2022-11-24T20:11:53.812Z,10.76
2022-11-24T20:14:22.181Z,11.44
2022-11-24T20:16:49.515Z,11.94
2022-11-24T20:19:18.012Z,12.13
2022-11-24T20:21:50.162Z,12.17
2022-11-24T20:24:20.240Z,11.74
2022-11-24T20:26:52.474Z,11.37
2022-11-24T20:29:22.462Z,11.12
2022-11-24T20:31:56.253Z,10.62
2022-11-24T20:34:23.951Z,10.19
2022-11-24T20:36:53.147Z,10.61
2022-11-24T20:39:28.806Z,10.52
2022-11-24T20:42:00.635Z,10.50
2022-11-24T20:44:30.252Z,10.73
2022-11-24T20:47:02.956Z,11.00
2022-11-24T20:49:30.374Z,11.15
2022-11-24T20:52:04.068Z,11.02
2022-11-24T20:54:35.144Z,10.30
2022-11-24T20:57:04.161Z,10.15
2022-11-24T20:59:31.361Z,10.23
2022-11-24T21:02:02.081Z,10.25
2022-11-24T21:04:35.325Z,9.86
2022-11-24T21:07:16.439Z,10.08
2022-11-24T21:09:43.751Z,10.43
2022-11-24T21:12:11.790Z,10.87
2022-11-24T21:14:40.935Z,11.14
2022-11-24T21:17:09.118Z,10.92
2022-11-24T21:19:38.206Z,10.70
2022-11-24T21:22:07.974Z,10.73
2022-11-24T21:24:42.583Z,10.37
2022-11-24T21:27:13.250Z,10.01
2022-11-24T21:29:44.473Z,9.64
2022-11-24T21:32:12.022Z,9.61
2022-11-24T21:34:45.412Z,8.85
2022-11-24T21:37:39.707Z,9.09
2022-11-24T21:40:20.089Z,8.35
2022-11-24T21:42:59.207Z,8.93
2022-11-24T21:45:41.764Z,8.70
2022-11-24T21:52:23.643Z,8.29
2022-11-24T21:53:27.134Z,8.77
2022-11-24T21:55:02.671Z,8.87
2022-11-24T21:57:30.842Z,8.95
2022-11-24T22:00:07.784Z,7.53
2022-11-24T22:02:40.847Z,8.15
2022-11-24T22:05:11.300Z,6.83
2022-11-24T22:07:38.412Z,8.20
2022-11-24T22:10:10.824Z,8.47
2022-11-24T22:12:38.381Z,8.44
2022-11-24T22:15:07.401Z,8.40
2022-11-24T22:17:34.253Z,8.66
2022-11-24T22:20:15.751Z,8.89
2022-11-24T22:22:48.558Z,8.62
2022-11-24T22:25:33.404Z,8.58
2022-11-24T22:28:01.768Z,8.85
2022-11-24T22:30:41.125Z,9.41
2022-11-24T22:33:15.730Z,8.88
2022-11-24T22:35:45.549Z,9.39
2022-11-24T22:38:22.048Z,9.65
2022-11-24T22:40:53.120Z,8.86
2022-11-24T22:43:30.110Z,9.32
2022-11-24T22:50:12.028Z,9.04
2022-11-24T22:52:58.542Z,8.92
2022-11-24T22:55:36.040Z,9.57
2022-11-24T22:58:07.056Z,9.47
2022-11-24T23:00:38.225Z,9.09
2022-11-24T23:03:05.694Z,8.93
2022-11-24T23:05:34.312Z,8.30
2022-11-24T23:08:02.502Z,8.56
2022-11-24T23:10:30.099Z,8.34
2022-11-24T23:15:50.881Z,8.44
2022-11-24T23:18:18.935Z,8.55
2022-11-24T23:20:52.822Z,8.61
2022-11-24T23:23:22.860Z,8.93
2022-11-24T23:25:55.776Z,9.53
2022-11-24T23:28:28.433Z,9.50
2022-11-24T23:31:05.518Z,9.55
2022-11-24T23:33:34.861Z,9.43
2022-11-24T23:36:05.966Z,9.31
2022-11-24T23:38:33.554Z,8.63
2022-11-24T23:41:08.747Z,9.10
2022-11-24T23:43:40.691Z,9.31
2022-11-24T23:46:15.317Z,8.97
2022-11-24T23:48:42.720Z,9.66
2022-11-24T23:51:23.405Z,10.30
2022-11-24T23:53:54.456Z,9.97
2022-11-24T23:56:23.797Z,10.37
2022-11-24T23:58:51.476Z,10.42
